Virtuous Striker — C6XX6 — position and weather

sailwx.info

Track history (hours):
 
Tides and Currents Weather Stations Pressure Air Temp Water Temp Dewpoint Dewpoint Depression Visibility Wind Speed Wind Dir Waves Ship Positions

Virtuous Striker

Last reported at 2015-Apr-21 12:20 UTC. Time now 2015-Apr-27 20:46 UTC.
Position S 23°20' W 040°31'.

Length 190 m; draft 11.5 m.

Type: Cargo ship. MMSI: 311025100.

Date/timePositionNaut miles runAvg speedWind from/ knotsBaromVisibWave heightAir tempDewpointWater temp
2015-Apr-21 12:20S 23°20' W 040°31'810.7
2015-Apr-21 11:33S 23°24' W 040°39'1110.6
2015-Apr-21 10:34S 23°29' W 040°49'1110.5
2015-Apr-21 09:32S 23°34' W 040°59'3310.0
2015-Apr-21 06:18S 23°45' W 041°33'18210.2
2015-Apr-20 12:25S 24°39' W 044°44'2311.3
2015-Apr-20 10:24S 24°46' W 045°08'1111.3
2015-Apr-20 09:24S 24°49' W 045°20'1011.3
2015-Apr-20 08:33S 24°52' W 045°30'3511.4
2015-Apr-20 05:26S 25°03' W 046°07'1111.4
2015-Apr-20 04:29S 25°06' W 046°18'1111.2
2015-Apr-20 03:30S 25°09' W 046°30'  
2015-Apr-14 07:09S 25°10' W 046°38'810.3
2015-Apr-14 06:22S 25°08' W 046°29'1410.5
2015-Apr-14 05:05S 25°03' W 046°15'  
Track history (hours):
 
Tides and Currents Weather Stations Pressure Air Temp Water Temp Dewpoint Dewpoint Depression Visibility Wind Speed Wind Dir Waves Ship Positions

Virtuous Striker

Last reported at 2015-Apr-21 12:20 UTC. Time now 2015-Apr-27 20:46 UTC.
Position S 23°20' W 040°31'.

Length 190 m; draft 11.5 m.

Type: Cargo ship. MMSI: 311025100.

Date/timePositionNaut miles runAvg speedWind from/ knotsBaromVisibWave heightAir tempDewpointWater temp
2015-Apr-21 12:20S 23°20' W 040°31'810.7
2015-Apr-21 11:33S 23°24' W 040°39'1110.6
2015-Apr-21 10:34S 23°29' W 040°49'1110.5
2015-Apr-21 09:32S 23°34' W 040°59'3310.0
2015-Apr-21 06:18S 23°45' W 041°33'18210.2
2015-Apr-20 12:25S 24°39' W 044°44'2311.3
2015-Apr-20 10:24S 24°46' W 045°08'1111.3
2015-Apr-20 09:24S 24°49' W 045°20'1011.3
2015-Apr-20 08:33S 24°52' W 045°30'3511.4
2015-Apr-20 05:26S 25°03' W 046°07'1111.4
2015-Apr-20 04:29S 25°06' W 046°18'1111.2
2015-Apr-20 03:30S 25°09' W 046°30'  
2015-Apr-14 07:09S 25°10' W 046°38'810.3
2015-Apr-14 06:22S 25°08' W 046°29'1410.5
2015-Apr-14 05:05S 25°03' W 046°15'  

Dump ship's entire track history